Time;durP1;ratioP1;P1;durP2;ratioP2;P2;SDS_P1;SDS_P2;PMS_P1;PMS_P2;Temp;Humidity;BMP_temperature;BMP_pressure;BME280_temperature;BME280_humidity;BME280_pressure;Samples;Min_cycle;Max_cycle;Signal;HPM_P1;HPM_P2
2020/12/22 00:00:10;;;;;;;27.40;11.75;;;1.80;67.10;;;;;;5075439;28;20431;-45
2020/12/22 00:02:43;;;;;;;25.00;11.40;;;1.80;67.10;;;;;;5075349;28;20496;-44
2020/12/22 00:05:11;;;;;;;18.15;7.63;;;1.80;66.90;;;;;;5075154;28;20449;-44
2020/12/22 00:07:37;;;;;;;15.85;8.45;;;1.80;66.80;;;;;;5075451;28;20097;-44
2020/12/22 00:10:04;;;;;;;14.02;7.93;;;1.80;66.80;;;;;;5076132;28;20105;-45
2020/12/22 00:12:31;;;;;;;10.27;6.45;;;1.80;66.70;;;;;;5074095;28;20353;-44
2020/12/22 00:14:58;;;;;;;17.67;9.98;;;1.80;66.70;;;;;;5075354;28;20032;-44
2020/12/22 00:17:23;;;;;;;13.35;8.05;;;1.80;66.70;;;;;;5075935;28;20483;-44
2020/12/22 00:19:49;;;;;;;13.57;7.93;;;1.80;66.90;;;;;;5074910;28;20020;-48
2020/12/22 00:22:15;;;;;;;12.18;7.07;;;1.80;66.80;;;;;;5075826;28;20075;-44
2020/12/22 00:24:40;;;;;;;15.95;6.53;;;1.80;66.90;;;;;;5075021;28;20103;-45
2020/12/22 00:27:06;;;;;;;11.80;6.50;;;1.80;66.80;;;;;;5075267;28;20047;-44
2020/12/22 00:29:32;;;;;;;10.15;6.22;;;1.80;66.70;;;;;;5075326;28;20029;-45
2020/12/22 00:32:03;;;;;;;12.82;6.97;;;1.80;66.60;;;;;;5075640;28;20453;-44
2020/12/22 00:34:32;;;;;;;11.52;7.22;;;1.80;66.70;;;;;;5074900;28;20031;-44
2020/12/22 00:37:01;;;;;;;14.27;8.23;;;1.80;66.80;;;;;;5075794;28;20130;-44
2020/12/22 00:39:28;;;;;;;12.15;6.57;;;1.70;66.60;;;;;;5074637;28;20027;-44
2020/12/22 00:41:54;;;;;;;12.13;6.68;;;1.70;66.70;;;;;;5074101;28;20052;-45
2020/12/22 00:44:21;;;;;;;14.70;7.30;;;1.70;66.80;;;;;;5075194;28;20119;-44
2020/12/22 00:46:47;;;;;;;12.55;7.60;;;1.70;66.90;;;;;;5075933;28;20063;-44
2020/12/22 00:49:13;;;;;;;18.27;8.73;;;1.70;66.90;;;;;;5074259;28;20052;-44
2020/12/22 00:51:39;;;;;;;18.42;9.95;;;1.70;67.00;;;;;;5075451;28;20090;-44
2020/12/22 00:54:04;;;;;;;19.65;9.73;;;1.70;67.10;;;;;;5074855;28;20025;-45
2020/12/22 00:56:30;;;;;;;16.45;9.00;;;1.70;67.00;;;;;;5079374;28;20032;-44
2020/12/22 00:58:56;;;;;;;22.63;10.95;;;1.70;67.10;;;;;;5078342;28;20390;-45
2020/12/22 01:01:23;;;;;;;22.08;11.73;;;1.70;67.10;;;;;;5093790;28;20074;-44
2020/12/22 01:03:49;;;;;;;22.05;12.27;;;1.70;67.00;;;;;;5078175;28;20024;-46
2020/12/22 01:06:15;;;;;;;18.35;10.18;;;1.70;67.00;;;;;;5079317;28;20031;-44
2020/12/22 01:08:44;;;;;;;17.65;9.80;;;1.70;67.00;;;;;;5078064;28;20031;-45
2020/12/22 01:11:10;;;;;;;12.95;8.05;;;1.70;67.00;;;;;;5078122;28;20442;-45
2020/12/22 01:13:36;;;;;;;14.55;8.93;;;1.70;67.10;;;;;;5078296;28;20032;-44
2020/12/22 01:16:02;;;;;;;15.48;9.60;;;1.70;67.20;;;;;;5078646;28;20036;-45
2020/12/22 01:18:28;;;;;;;19.42;10.02;;;1.70;67.20;;;;;;5076889;28;20111;-45
2020/12/22 01:20:54;;;;;;;17.70;9.75;;;1.70;67.20;;;;;;5077263;28;20155;-44
2020/12/22 01:23:19;;;;;;;15.65;9.18;;;1.70;67.00;;;;;;5076814;28;20035;-45
2020/12/22 01:25:45;;;;;;;15.30;9.73;;;1.60;67.00;;;;;;5076608;28;20109;-45
2020/12/22 01:28:11;;;;;;;17.40;9.82;;;1.60;67.20;;;;;;5077064;28;20016;-46
2020/12/22 01:30:39;;;;;;;18.08;9.68;;;1.60;67.30;;;;;;5076963;28;20020;-45
2020/12/22 01:33:06;;;;;;;15.75;9.73;;;1.60;67.40;;;;;;5076696;28;20029;-45
2020/12/22 01:35:32;;;;;;;17.75;9.52;;;1.60;67.30;;;;;;5077070;28;20024;-45
2020/12/22 01:37:58;;;;;;;16.33;10.27;;;1.60;67.20;;;;;;5076430;28;20062;-45
2020/12/22 01:40:24;;;;;;;13.30;8.82;;;1.60;67.30;;;;;;5077369;28;20021;-46
2020/12/22 01:42:49;;;;;;;16.08;10.13;;;1.60;67.40;;;;;;5076873;28;20032;-44
2020/12/22 01:45:15;;;;;;;16.15;9.80;;;1.60;67.50;;;;;;5076853;28;20111;-45
2020/12/22 01:47:46;;;;;;;16.65;10.00;;;1.60;67.50;;;;;;5075406;28;20024;-45
2020/12/22 01:50:17;;;;;;;20.00;11.85;;;1.60;67.50;;;;;;5074704;28;20024;-44
2020/12/22 01:52:44;;;;;;;23.23;11.95;;;1.60;67.50;;;;;;5076591;28;20095;-45
2020/12/22 01:55:10;;;;;;;21.95;12.93;;;1.60;67.50;;;;;;5076526;28;20167;-42
2020/12/22 01:57:37;;;;;;;21.50;12.40;;;1.60;67.50;;;;;;5076077;28;20127;-42
2020/12/22 02:00:05;;;;;;;20.27;11.38;;;1.60;67.60;;;;;;5076672;28;20019;-42
2020/12/22 02:02:32;;;;;;;18.00;10.82;;;1.60;67.50;;;;;;5077631;28;20028;-43
2020/12/22 02:04:58;;;;;;;20.05;12.65;;;1.60;67.50;;;;;;5077401;28;20481;-42
2020/12/22 02:07:25;;;;;;;20.77;12.48;;;1.60;67.50;;;;;;5077071;28;20083;-42
2020/12/22 02:09:50;;;;;;;25.65;13.05;;;1.60;67.60;;;;;;5076700;28;20020;-42
2020/12/22 02:12:19;;;;;;;20.63;12.73;;;1.60;67.60;;;;;;5075612;28;20063;-42
2020/12/22 02:14:45;;;;;;;17.95;10.90;;;1.60;67.60;;;;;;5073907;28;20025;-42
2020/12/22 02:17:13;;;;;;;21.33;12.38;;;1.60;67.50;;;;;;5076059;28;20031;-42
2020/12/22 02:19:38;;;;;;;20.52;12.00;;;1.60;67.50;;;;;;5075895;28;20029;-43
2020/12/22 02:22:04;;;;;;;22.33;11.82;;;1.60;67.20;;;;;;5076865;28;20081;-42
2020/12/22 02:24:35;;;;;;;20.63;12.02;;;1.50;67.10;;;;;;5075986;28;20013;-42
2020/12/22 02:27:02;;;;;;;22.67;12.67;;;1.60;67.30;;;;;;5075479;28;20360;-42
2020/12/22 02:29:28;;;;;;;19.90;12.40;;;1.50;67.30;;;;;;5075651;28;20091;-42
2020/12/22 02:31:54;;;;;;;23.88;12.82;;;1.50;67.40;;;;;;5076177;28;20055;-42
2020/12/22 02:34:20;;;;;;;23.42;14.27;;;1.50;67.60;;;;;;5075193;28;20047;-42
2020/12/22 02:36:46;;;;;;;27.33;14.18;;;1.50;67.70;;;;;;5076275;28;20111;-42
2020/12/22 02:39:11;;;;;;;24.20;12.90;;;1.50;67.80;;;;;;5076860;28;20029;-43
2020/12/22 02:41:37;;;;;;;28.42;14.60;;;1.50;67.80;;;;;;5077129;28;20027;-42
2020/12/22 02:44:03;;;;;;;24.77;13.95;;;1.50;68.00;;;;;;5076734;28;20035;-42
2020/12/22 02:46:29;;;;;;;24.98;14.70;;;1.50;67.90;;;;;;5077048;28;20012;-43
2020/12/22 02:48:54;;;;;;;28.55;16.17;;;1.50;68.00;;;;;;5076139;28;20098;-42
2020/12/22 02:51:20;;;;;;;27.13;14.98;;;1.50;68.20;;;;;;5076359;28;20044;-45
2020/12/22 02:53:46;;;;;;;28.77;15.77;;;1.50;68.30;;;;;;5075035;28;20115;-45
2020/12/22 02:56:12;;;;;;;32.40;17.63;;;1.50;68.20;;;;;;5075339;28;20048;-45
2020/12/22 02:58:37;;;;;;;29.90;16.25;;;1.50;68.30;;;;;;5075144;28;20024;-45
2020/12/22 03:01:03;;;;;;;33.58;17.45;;;1.50;68.40;;;;;;5075469;28;20024;-45
2020/12/22 03:03:29;;;;;;;30.73;16.00;;;1.50;68.40;;;;;;5074517;28;20034;-45
2020/12/22 03:05:55;;;;;;;25.05;13.68;;;1.60;68.50;;;;;;5075398;28;20028;-44
2020/12/22 03:08:21;;;;;;;33.05;16.08;;;1.60;68.50;;;;;;5074487;28;20036;-44
2020/12/22 03:10:46;;;;;;;29.38;15.25;;;1.60;68.50;;;;;;5074658;28;20025;-44
2020/12/22 03:13:12;;;;;;;33.10;17.58;;;1.60;68.40;;;;;;5074855;28;20033;-45
2020/12/22 03:15:38;;;;;;;31.05;15.77;;;1.60;68.50;;;;;;5075269;28;20028;-45
2020/12/22 03:18:05;;;;;;;36.95;18.52;;;1.60;68.60;;;;;;5073471;28;20020;-45
2020/12/22 03:20:31;;;;;;;34.28;17.90;;;1.60;68.70;;;;;;5075118;28;20077;-45
2020/12/22 03:22:56;;;;;;;29.27;15.85;;;1.60;68.70;;;;;;5075023;28;20036;-46
2020/12/22 03:25:22;;;;;;;30.10;16.77;;;1.60;68.80;;;;;;5075296;28;20111;-46
2020/12/22 03:27:48;;;;;;;36.20;19.02;;;1.60;68.80;;;;;;5074977;28;20024;-47
2020/12/22 03:30:15;;;;;;;34.78;18.02;;;1.60;68.90;;;;;;5075057;28;20016;-48
2020/12/22 03:32:42;;;;;;;38.90;19.52;;;1.60;68.90;;;;;;5074536;28;20044;-44
2020/12/22 03:35:09;;;;;;;41.70;21.95;;;1.60;69.00;;;;;;5075147;28;20337;-45
2020/12/22 03:37:36;;;;;;;38.85;19.65;;;1.60;69.00;;;;;;5074997;28;20032;-44
2020/12/22 03:40:08;;;;;;;40.47;22.33;;;1.60;68.90;;;;;;5075649;28;20130;-45
2020/12/22 03:42:34;;;;;;;37.72;19.80;;;1.60;68.90;;;;;;5075689;28;20028;-45
2020/12/22 03:45:00;;;;;;;38.92;19.23;;;1.60;68.90;;;;;;5074723;28;20114;-45
2020/12/22 03:47:26;;;;;;;40.45;21.20;;;1.60;69.00;;;;;;5074384;28;20441;-45
2020/12/22 03:49:51;;;;;;;37.60;18.45;;;1.70;69.00;;;;;;5074677;28;20028;-45
2020/12/22 03:52:17;;;;;;;39.25;20.75;;;1.70;69.00;;;;;;5074292;28;20491;-44
2020/12/22 03:54:43;;;;;;;43.72;23.52;;;1.70;69.20;;;;;;5074566;28;20329;-45
2020/12/22 03:57:09;;;;;;;37.88;17.90;;;1.70;69.30;;;;;;5075043;28;20077;-44
2020/12/22 03:59:35;;;;;;;40.70;19.77;;;1.70;69.40;;;;;;5074012;28;20028;-45
2020/12/22 04:02:02;;;;;;;45.42;24.23;;;1.70;69.30;;;;;;5074362;28;20128;-45
2020/12/22 04:04:28;;;;;;;44.13;23.88;;;1.70;69.50;;;;;;5073869;28;20342;-44
2020/12/22 04:06:53;;;;;;;33.47;19.15;;;1.70;69.50;;;;;;5074594;28;20028;-45
2020/12/22 04:09:22;;;;;;;35.85;19.80;;;1.70;69.40;;;;;;5073450;28;20426;-45
2020/12/22 04:11:49;;;;;;;40.70;19.83;;;1.70;69.40;;;;;;5073849;28;20060;-46
2020/12/22 04:14:16;;;;;;;36.03;18.63;;;1.70;69.30;;;;;;5073611;28;20028;-45
2020/12/22 04:16:42;;;;;;;37.47;19.17;;;1.70;69.30;;;;;;5074382;28;20323;-45
2020/12/22 04:19:08;;;;;;;35.22;18.73;;;1.70;69.20;;;;;;5072378;28;20422;-44
2020/12/22 04:21:35;;;;;;;41.05;20.05;;;1.70;69.40;;;;;;5074875;28;20067;-44
2020/12/22 04:24:02;;;;;;;40.55;21.42;;;1.70;69.50;;;;;;5074685;28;20341;-44
2020/12/22 04:26:28;;;;;;;38.35;19.85;;;1.70;69.50;;;;;;5075645;28;20036;-44
2020/12/22 04:28:54;;;;;;;43.95;22.30;;;1.70;70.10;;;;;;5076786;28;20028;-45
2020/12/22 04:31:21;;;;;;;44.50;23.58;;;1.80;69.60;;;;;;5077979;28;20421;-45
2020/12/22 04:33:57;;;;;;;46.00;22.65;;;1.80;69.70;;;;;;5077372;28;20089;-46
2020/12/22 04:36:24;;;;;;;41.67;20.50;;;1.80;69.70;;;;;;5077348;28;20051;-45
2020/12/22 04:38:51;;;;;;;48.20;24.80;;;1.80;69.70;;;;;;5075065;28;20020;-45
2020/12/22 04:41:18;;;;;;;43.95;23.55;;;1.80;69.60;;;;;;5078424;28;20067;-44
2020/12/22 04:43:45;;;;;;;44.83;21.33;;;1.90;69.60;;;;;;5077571;28;20016;-45
2020/12/22 04:46:15;;;;;;;44.85;23.90;;;1.90;69.50;;;;;;5077712;28;20025;-45
2020/12/22 04:48:40;;;;;;;48.22;24.67;;;1.90;69.50;;;;;;5078024;28;20361;-45
2020/12/22 04:51:10;;;;;;;48.28;23.45;;;1.90;69.60;;;;;;5077988;28;20125;-44
2020/12/22 04:53:37;;;;;;;42.95;22.10;;;1.90;69.70;;;;;;5077296;28;20036;-42
2020/12/22 04:56:08;;;;;;;41.38;21.98;;;1.90;69.60;;;;;;5077312;28;20040;-42
2020/12/22 04:58:35;;;;;;;46.37;22.87;;;1.90;69.60;;;;;;5075407;28;20035;-42
2020/12/22 05:01:01;;;;;;;44.22;23.48;;;1.90;69.40;;;;;;5077780;28;20590;-42
2020/12/22 05:03:27;;;;;;;43.90;22.95;;;1.90;69.30;;;;;;5078108;28;20130;-45
2020/12/22 05:05:53;;;;;;;45.90;23.05;;;1.80;69.40;;;;;;5078568;28;20139;-44
2020/12/22 05:08:20;;;;;;;44.78;23.25;;;1.80;69.50;;;;;;5077687;28;20032;-43
2020/12/22 05:10:47;;;;;;;43.42;23.60;;;1.80;69.50;;;;;;5078751;28;20020;-42
2020/12/22 05:13:14;;;;;;;48.80;25.83;;;1.80;69.50;;;;;;5077853;28;20119;-42
2020/12/22 05:15:42;;;;;;;46.80;23.00;;;1.80;69.60;;;;;;5078174;28;20024;-44
2020/12/22 05:18:08;;;;;;;49.33;25.88;;;1.80;69.70;;;;;;5078100;28;20024;-43
2020/12/22 05:20:34;;;;;;;51.13;25.75;;;1.80;69.80;;;;;;5078323;28;20052;-45
2020/12/22 05:22:59;;;;;;;43.78;23.35;;;1.80;69.80;;;;;;5077525;28;20055;-44
2020/12/22 05:25:27;;;;;;;55.92;25.75;;;1.80;69.80;;;;;;5069902;28;20021;-44
2020/12/22 05:27:55;;;;;;;44.30;21.70;;;1.80;69.70;;;;;;5057651;28;20036;-44
2020/12/22 05:30:21;;;;;;;51.63;25.48;;;1.80;69.80;;;;;;5057282;28;20060;-44
2020/12/22 05:32:51;;;;;;;41.78;21.55;;;1.80;69.90;;;;;;5057798;28;20082;-43
2020/12/22 05:35:19;;;;;;;45.72;22.52;;;1.80;69.90;;;;;;5057744;28;20052;-44
2020/12/22 05:37:50;;;;;;;46.63;23.75;;;1.90;69.90;;;;;;5056427;28;20124;-44
2020/12/22 05:40:16;;;;;;;50.85;23.25;;;1.80;69.80;;;;;;5055894;28;20098;-44
2020/12/22 05:42:42;;;;;;;43.40;22.83;;;1.80;69.90;;;;;;5058265;28;20033;-44
2020/12/22 05:45:09;;;;;;;42.67;23.08;;;1.80;69.90;;;;;;5056582;28;20027;-46
2020/12/22 05:47:34;;;;;;;52.17;23.65;;;1.90;69.90;;;;;;5056413;28;20112;-44
2020/12/22 05:50:02;;;;;;;46.47;25.15;;;1.80;69.80;;;;;;5057853;28;20401;-44
2020/12/22 05:52:29;;;;;;;50.13;24.27;;;1.80;69.80;;;;;;5057171;28;20083;-44
2020/12/22 05:54:56;;;;;;;45.90;23.38;;;1.80;69.80;;;;;;5057832;28;20074;-44
2020/12/22 05:57:27;;;;;;;48.05;23.08;;;1.80;69.90;;;;;;5057131;28;20083;-44
2020/12/22 05:59:53;;;;;;;;;;;1.80;69.90;;;;;;5057244;28;20043;-44
2020/12/22 06:02:30;;;;;;;43.28;20.67;;;1.80;69.90;;;;;;5056983;28;19913;-45
2020/12/22 06:05:00;;;;;;;50.15;24.48;;;1.80;70.00;;;;;;5058052;28;20051;-44
2020/12/22 06:07:29;;;;;;;40.38;20.00;;;1.80;70.10;;;;;;5057272;28;20064;-45
2020/12/22 06:09:56;;;;;;;53.58;26.65;;;1.80;70.00;;;;;;5057453;28;20040;-47
2020/12/22 06:12:23;;;;;;;51.60;24.13;;;1.80;70.10;;;;;;5054328;28;20068;-46
2020/12/22 06:14:51;;;;;;;44.47;22.98;;;1.80;70.00;;;;;;5055546;28;20025;-44
2020/12/22 06:17:17;;;;;;;48.65;24.30;;;1.80;70.10;;;;;;5056180;28;20413;-44
2020/12/22 06:19:44;;;;;;;44.72;22.58;;;1.80;70.10;;;;;;5057467;28;20460;-45
2020/12/22 06:22:12;;;;;;;46.50;24.20;;;1.80;70.10;;;;;;5056957;28;20033;-43
2020/12/22 06:24:39;;;;;;;52.03;24.85;;;1.80;70.10;;;;;;5059689;28;20344;-44
2020/12/22 06:27:07;;;;;;;42.83;21.35;;;1.80;70.00;;;;;;5084332;28;20086;-44
2020/12/22 06:29:34;;;;;;;50.72;25.35;;;1.80;70.20;;;;;;5076573;28;20114;-45
2020/12/22 06:32:18;;;;;;;49.38;26.52;;;1.80;70.80;;;;;;5077358;28;20052;-44
2020/12/22 06:34:44;;;;;;;48.85;26.30;;;1.80;70.40;;;;;;5077553;28;20025;-45
2020/12/22 06:37:10;;;;;;;49.72;25.30;;;1.70;70.40;;;;;;5076047;28;20033;-43
2020/12/22 06:39:43;;;;;;;54.22;27.73;;;1.70;70.40;;;;;;5076701;28;20193;-44
2020/12/22 06:42:10;;;;;;;53.22;26.10;;;1.80;70.60;;;;;;5076621;28;20025;-45
2020/12/22 06:44:36;;;;;;;47.45;24.35;;;1.80;70.50;;;;;;5075962;28;20024;-44
2020/12/22 06:47:04;;;;;;;70.75;38.85;;;1.80;70.50;;;;;;5076757;28;20033;-44
2020/12/22 06:49:49;;;;;;;54.42;26.38;;;1.80;70.60;;;;;;5076404;28;20020;-46
2020/12/22 06:52:42;;;;;;;50.33;26.75;;;1.90;70.50;;;;;;5075126;28;20041;-45
2020/12/22 06:55:09;;;;;;;46.78;24.40;;;1.90;70.60;;;;;;5076645;28;20031;-44
2020/12/22 06:57:46;;;;;;;53.60;24.63;;;1.90;70.70;;;;;;5075103;28;20416;-44
2020/12/22 07:00:37;;;;;;;46.55;24.98;;;1.90;70.70;;;;;;5085794;28;20374;-44
2020/12/22 07:03:08;;;;;;;;;;;2.00;70.60;;;;;;5052939;28;20128;-44
2020/12/22 07:05:38;;;;;;;;;;;2.00;70.60;;;;;;5053141;28;19999;-45
2020/12/22 07:08:04;;;;;;;52.67;22.83;;;2.00;70.50;;;;;;5052398;28;19905;-44
2020/12/22 07:10:30;;;;;;;45.92;24.75;;;2.00;70.50;;;;;;5053050;28;20021;-46
2020/12/22 07:12:58;;;;;;;49.28;26.05;;;2.00;70.60;;;;;;5073681;28;20106;-43
2020/12/22 07:15:42;;;;;;;51.78;23.83;;;2.00;70.60;;;;;;5095166;28;20026;-47
2020/12/22 07:18:10;;;;;;;47.60;23.85;;;2.00;70.60;;;;;;5083644;28;20078;-44
2020/12/22 07:20:39;;;;;;;65.40;35.20;;;2.00;70.60;;;;;;5076197;28;20024;-45
2020/12/22 07:23:06;;;;;;;96.32;54.65;;;2.10;70.70;;;;;;5074380;28;20069;-45
2020/12/22 07:25:32;;;;;;;49.22;27.20;;;2.10;70.60;;;;;;5076413;28;20016;-45
2020/12/22 07:28:00;;;;;;;52.60;25.35;;;2.10;70.40;;;;;;5082929;28;20084;-45
2020/12/22 07:30:27;;;;;;;72.30;35.17;;;2.10;70.40;;;;;;5078283;28;20032;-44
2020/12/22 07:32:52;;;;;;;52.10;26.25;;;2.20;70.40;;;;;;5074368;28;20307;-44
2020/12/22 07:35:19;;;;;;;57.97;28.52;;;2.20;70.50;;;;;;5092219;28;20095;-48
2020/12/22 07:37:45;;;;;;;56.72;30.42;;;2.20;70.40;;;;;;5090993;28;20039;-44
2020/12/22 07:40:12;;;;;;;49.70;26.00;;;2.20;70.50;;;;;;5076112;28;20028;-49
2020/12/22 07:42:38;;;;;;;54.10;27.45;;;2.30;70.40;;;;;;5078067;28;20032;-42
2020/12/22 07:45:07;;;;;;;71.93;38.05;;;2.30;70.40;;;;;;5085361;28;20425;-45
2020/12/22 07:47:34;;;;;;;61.45;31.30;;;2.30;70.20;;;;;;5086716;28;20138;-46
2020/12/22 07:50:14;;;;;;;63.85;32.80;;;2.30;70.00;;;;;;5092652;28;20348;-45
2020/12/22 07:52:40;;;;;;;67.32;32.95;;;2.40;70.00;;;;;;5090137;28;20459;-45
2020/12/22 07:55:07;;;;;;;51.97;28.88;;;2.30;69.80;;;;;;5091459;28;20021;-43
2020/12/22 07:57:36;;;;;;;58.80;27.45;;;2.30;69.80;;;;;;5074197;28;20112;-44
2020/12/22 08:00:07;;;;;;;52.50;28.08;;;2.40;70.00;;;;;;5075380;28;20346;-43
2020/12/22 08:02:33;;;;;;;51.38;26.48;;;2.40;70.00;;;;;;5075513;28;20028;-43
2020/12/22 08:05:12;;;;;;;56.10;27.60;;;2.40;70.00;;;;;;5091191;28;20025;-44
2020/12/22 08:07:39;;;;;;;48.67;26.65;;;2.40;70.00;;;;;;5069514;28;20058;-43
2020/12/22 08:10:15;;;;;;;46.40;24.25;;;2.50;70.00;;;;;;5071535;28;20115;-44
2020/12/22 08:12:42;;;;;;;47.15;25.40;;;2.50;70.10;;;;;;5071079;28;20100;-43
2020/12/22 08:15:10;;;;;;;69.03;32.65;;;2.50;70.10;;;;;;5074890;28;20055;-43
2020/12/22 08:17:42;;;;;;;57.13;30.77;;;2.50;70.00;;;;;;5073567;28;20680;-43
2020/12/22 08:20:08;;;;;;;59.83;29.17;;;2.60;69.70;;;;;;5069748;28;20530;-44
2020/12/22 08:22:36;;;;;;;46.30;26.30;;;2.60;69.60;;;;;;5070849;28;20034;-43
2020/12/22 08:25:02;;;;;;;51.58;27.35;;;2.60;69.70;;;;;;5076854;28;20171;-44
2020/12/22 08:27:31;;;;;;;64.00;32.38;;;2.60;69.80;;;;;;5087199;28;20016;-44
2020/12/22 08:29:58;;;;;;;150.68;68.50;;;2.60;69.60;;;;;;5080214;28;20646;-44
2020/12/22 08:32:25;;;;;;;97.97;48.17;;;2.60;69.40;;;;;;5089609;28;20040;-44
2020/12/22 08:34:54;;;;;;;76.63;40.30;;;2.60;69.40;;;;;;5089735;28;20078;-45
2020/12/22 08:37:27;;;;;;;76.22;43.05;;;2.60;69.20;;;;;;5074325;28;20024;-45
2020/12/22 08:39:53;;;;;;;123.55;73.93;;;2.60;69.20;;;;;;5073713;28;20032;-44
2020/12/22 08:42:20;;;;;;;141.77;81.97;;;2.60;69.40;;;;;;5073625;28;20024;-43
2020/12/22 08:44:51;;;;;;;111.90;70.90;;;2.60;69.40;;;;;;5077950;28;20035;-44
2020/12/22 08:47:18;;;;;;;65.70;31.60;;;2.60;69.30;;;;;;5094633;28;20437;-44
2020/12/22 08:49:45;;;;;;;51.65;27.83;;;2.60;69.40;;;;;;5086183;28;20044;-43
2020/12/22 08:52:16;;;;;;;53.92;27.60;;;2.60;69.50;;;;;;5085565;28;20038;-45
2020/12/22 08:54:43;;;;;;;52.45;28.45;;;2.60;69.50;;;;;;5094991;28;20063;-44
2020/12/22 08:57:23;;;;;;;49.90;25.73;;;2.60;69.60;;;;;;5084373;28;20369;-43
2020/12/22 08:59:48;;;;;;;48.05;25.00;;;2.60;69.50;;;;;;5095635;28;20036;-44
2020/12/22 09:02:30;;;;;;;48.65;26.38;;;2.60;69.50;;;;;;5095259;28;20032;-44
2020/12/22 09:04:56;;;;;;;60.17;29.90;;;2.60;69.60;;;;;;5090337;28;20044;-43
2020/12/22 09:07:26;;;;;;;51.88;27.85;;;2.60;69.50;;;;;;5074333;28;20028;-44
2020/12/22 09:09:54;;;;;;;49.95;26.13;;;2.50;69.20;;;;;;5074638;28;20020;-44
2020/12/22 09:12:19;;;;;;;55.40;25.90;;;2.50;69.10;;;;;;5073200;28;20175;-44
2020/12/22 09:14:47;;;;;;;50.85;26.10;;;2.40;69.10;;;;;;5075035;28;20112;-44
2020/12/22 09:17:34;;;;;;;52.13;25.30;;;2.40;70.00;;;;;;5078055;28;20384;-43
2020/12/22 09:20:00;;;;;;;43.95;23.63;;;2.40;69.70;;;;;;5085767;28;20103;-43
2020/12/22 09:22:27;;;;;;;53.00;26.80;;;2.40;70.00;;;;;;5092016;28;20047;-44
2020/12/22 09:24:55;;;;;;;41.88;22.60;;;2.40;70.30;;;;;;5083657;28;20442;-43
2020/12/22 09:27:30;;;;;;;42.88;22.23;;;2.40;70.40;;;;;;5078500;28;20039;-44
2020/12/22 09:29:56;;;;;;;50.78;27.25;;;2.40;70.30;;;;;;5079391;28;20032;-42
2020/12/22 09:32:22;;;;;;;60.20;35.13;;;2.40;70.40;;;;;;5082882;28;20040;-43
2020/12/22 09:34:48;;;;;;;55.72;27.05;;;2.40;70.40;;;;;;5081863;28;20350;-44
2020/12/22 09:37:15;;;;;;;55.53;28.83;;;2.50;70.40;;;;;;5077534;28;20035;-44
2020/12/22 09:39:41;;;;;;;55.03;28.45;;;2.40;70.00;;;;;;5076826;28;20024;-44
2020/12/22 09:42:07;;;;;;;57.67;31.40;;;2.40;70.10;;;;;;5077022;28;20051;-44
2020/12/22 09:44:34;;;;;;;51.00;27.90;;;2.40;70.30;;;;;;5095189;28;20024;-44
2020/12/22 09:47:00;;;;;;;55.55;31.92;;;2.50;70.50;;;;;;5082771;28;20422;-45
2020/12/22 09:49:26;;;;;;;45.25;24.25;;;2.50;70.50;;;;;;5081472;28;20025;-44
2020/12/22 09:51:53;;;;;;;61.00;39.55;;;2.50;70.60;;;;;;5076861;28;20119;-45
2020/12/22 09:54:19;;;;;;;61.88;40.80;;;2.60;70.40;;;;;;5075824;28;20036;-44
2020/12/22 09:56:46;;;;;;;44.75;24.73;;;2.60;70.40;;;;;;5078141;28;20020;-45
2020/12/22 09:59:12;;;;;;;48.05;26.70;;;2.60;70.30;;;;;;5079258;28;20108;-44
2020/12/22 10:01:38;;;;;;;55.67;29.20;;;2.60;70.10;;;;;;5097217;28;20414;-44
2020/12/22 10:04:04;;;;;;;44.22;23.88;;;2.60;70.10;;;;;;5089718;28;20028;-44
2020/12/22 10:06:30;;;;;;;41.08;22.00;;;2.60;70.10;;;;;;5097221;28;20020;-45
2020/12/22 10:08:56;;;;;;;39.50;21.95;;;2.60;70.00;;;;;;5077132;28;20025;-44
2020/12/22 10:11:23;;;;;;;46.83;26.63;;;2.70;70.00;;;;;;5076258;28;20044;-45
2020/12/22 10:13:50;;;;;;;61.50;33.10;;;2.70;70.00;;;;;;5075314;28;20372;-45
2020/12/22 10:16:19;;;;;;;111.63;60.25;;;2.70;69.90;;;;;;5076249;28;20028;-44
2020/12/22 10:18:46;;;;;;;85.07;46.88;;;2.70;69.80;;;;;;5078295;28;20457;-44
2020/12/22 10:21:14;;;;;;;44.58;27.00;;;2.70;70.50;;;;;;5086530;28;20023;-45
2020/12/22 10:23:41;;;;;;;42.63;24.90;;;2.70;69.70;;;;;;5090971;28;20115;-45
2020/12/22 10:26:09;;;;;;;42.45;24.42;;;2.70;69.50;;;;;;5095773;28;20406;-45
2020/12/22 10:28:37;;;;;;;62.85;35.30;;;2.70;70.10;;;;;;5076608;28;20028;-44
2020/12/22 10:31:03;;;;;;;45.70;24.00;;;2.70;69.60;;;;;;5076840;28;20437;-46
2020/12/22 10:33:29;;;;;;;49.58;27.90;;;2.70;69.40;;;;;;5076471;28;20383;-44
2020/12/22 10:35:56;;;;;;;37.22;22.17;;;2.70;69.60;;;;;;5085475;28;20398;-46
2020/12/22 10:38:21;;;;;;;41.13;23.67;;;2.70;69.60;;;;;;5065277;28;20040;-44
2020/12/22 10:40:48;;;;;;;42.63;24.73;;;2.70;69.70;;;;;;5072453;28;20028;-44
2020/12/22 10:43:14;;;;;;;48.05;26.67;;;2.70;69.80;;;;;;5075006;28;20036;-44
2020/12/22 10:45:40;;;;;;;36.03;21.55;;;2.70;69.70;;;;;;5077488;28;20059;-45
2020/12/22 10:48:07;;;;;;;44.78;23.80;;;2.70;69.60;;;;;;5078700;28;20045;-45
2020/12/22 10:50:37;;;;;;;40.50;24.98;;;2.60;69.60;;;;;;5080283;28;20048;-45
2020/12/22 10:53:04;;;;;;;47.33;29.17;;;2.60;69.70;;;;;;5079405;28;20366;-44
2020/12/22 10:55:30;;;;;;;38.15;23.65;;;2.60;69.70;;;;;;5076303;28;20028;-45
2020/12/22 10:57:56;;;;;;;38.22;22.98;;;2.60;69.70;;;;;;5074913;28;20341;-47
2020/12/22 11:00:22;;;;;;;42.25;25.13;;;2.60;69.80;;;;;;5076327;28;20036;-46
2020/12/22 11:02:50;;;;;;;41.58;24.10;;;2.60;69.60;;;;;;5072577;28;20016;-44
2020/12/22 11:05:16;;;;;;;34.15;21.73;;;2.60;69.50;;;;;;5074360;28;20039;-44
2020/12/22 11:07:50;;;;;;;38.95;20.77;;;2.60;70.00;;;;;;5075369;28;20306;-45
2020/12/22 11:10:16;;;;;;;42.85;24.45;;;2.60;69.70;;;;;;5075808;28;20035;-44
2020/12/22 11:12:41;;;;;;;51.53;30.70;;;2.60;69.70;;;;;;5075057;28;20052;-43
2020/12/22 11:15:07;;;;;;;84.93;47.13;;;2.50;69.80;;;;;;5075259;28;20024;-45
2020/12/22 11:17:33;;;;;;;43.30;25.45;;;2.50;69.80;;;;;;5076452;28;20039;-44
2020/12/22 11:19:59;;;;;;;48.88;27.92;;;2.50;70.00;;;;;;5075779;28;20120;-43
2020/12/22 11:22:25;;;;;;;41.72;24.00;;;2.50;70.10;;;;;;5076450;28;20070;-44
2020/12/22 11:24:51;;;;;;;35.58;21.88;;;2.60;70.20;;;;;;5076348;28;20040;-44
2020/12/22 11:27:16;;;;;;;35.67;21.38;;;2.60;70.10;;;;;;5074949;28;20319;-43
2020/12/22 11:29:43;;;;;;;29.27;18.80;;;2.60;70.10;;;;;;5076323;28;20032;-45
2020/12/22 11:32:10;;;;;;;28.23;18.02;;;2.60;70.00;;;;;;5076190;28;20036;-44
2020/12/22 11:34:36;;;;;;;39.70;22.45;;;2.60;70.00;;;;;;5076489;28;20089;-44
2020/12/22 11:37:03;;;;;;;40.90;22.88;;;2.60;70.50;;;;;;5075937;28;20070;-44
2020/12/22 11:39:28;;;;;;;37.83;23.08;;;2.60;69.80;;;;;;5074987;28;20428;-46
2020/12/22 11:42:04;;;;;;;40.88;22.73;;;2.60;69.90;;;;;;5075772;28;20035;-44
2020/12/22 11:44:30;;;;;;;42.72;25.13;;;2.60;69.90;;;;;;5075969;28;20494;-44
2020/12/22 11:46:55;;;;;;;46.63;25.90;;;2.60;69.90;;;;;;5074314;28;20445;-45
2020/12/22 11:49:22;;;;;;;56.08;27.17;;;2.60;69.80;;;;;;5074293;28;20063;-45
2020/12/22 11:51:54;;;;;;;64.15;34.63;;;2.60;69.70;;;;;;5076002;28;20036;-44
2020/12/22 11:54:20;;;;;;;53.13;30.92;;;2.60;69.70;;;;;;5074728;28;20424;-44
2020/12/22 11:56:46;;;;;;;47.38;26.10;;;2.60;69.80;;;;;;5075574;28;20044;-44
2020/12/22 11:59:12;;;;;;;42.10;25.45;;;2.60;69.80;;;;;;5073703;28;20032;-45
2020/12/22 12:01:38;;;;;;;36.08;22.02;;;2.60;70.30;;;;;;5073506;28;20052;-44
2020/12/22 12:04:04;;;;;;;26.75;17.17;;;2.60;69.60;;;;;;5073975;28;20082;-47
2020/12/22 12:06:29;;;;;;;40.50;21.63;;;2.60;69.60;;;;;;5069430;28;20028;-44
2020/12/22 12:08:55;;;;;;;42.63;23.27;;;2.60;69.60;;;;;;5060286;28;20436;-46
2020/12/22 12:11:21;;;;;;;51.25;25.70;;;2.60;69.70;;;;;;5072008;28;20051;-44
2020/12/22 12:13:47;;;;;;;47.80;27.98;;;2.50;69.70;;;;;;5073444;28;20182;-44
2020/12/22 12:16:17;;;;;;;55.85;31.33;;;2.50;69.80;;;;;;5075483;28;20070;-45
2020/12/22 12:18:43;;;;;;;52.90;28.80;;;2.50;70.00;;;;;;5074098;28;20083;-45
2020/12/22 12:21:12;;;;;;;62.58;37.30;;;2.50;70.00;;;;;;5074098;28;20565;-44
2020/12/22 12:23:38;;;;;;;51.75;30.65;;;2.50;70.00;;;;;;5073390;28;20031;-44
2020/12/22 12:26:05;;;;;;;49.70;30.17;;;2.50;70.10;;;;;;5073500;28;20402;-46
2020/12/22 12:28:31;;;;;;;43.55;25.92;;;2.50;70.80;;;;;;5073489;28;20029;-44
2020/12/22 12:30:57;;;;;;;46.38;29.38;;;2.40;70.20;;;;;;5074088;28;20037;-44
2020/12/22 12:33:23;;;;;;;34.67;21.05;;;2.40;70.30;;;;;;5072810;28;20045;-43
2020/12/22 12:35:48;;;;;;;33.97;20.92;;;2.40;70.30;;;;;;5073988;28;20346;-44
2020/12/22 12:38:14;;;;;;;38.10;22.92;;;2.40;70.30;;;;;;5072486;28;20323;-44